CheckWX is a tool to help pilots better visualize weather data.  It is not intended as a substitute for an official pre-flight weather briefing.

18:02:40 UTC

CYET METAR
Edson Airport
Edson, Alberta, Canada
Current

33 mins ago

CYET 171730Z AUTO 27004KT 230V310 9SM -SN FEW043 BKN050 OVC055 M19/M23 A3039 RMK SLP381
Observed
Feb-17 @ 17:30 UTC
Wind
  • 270° at 4 KTS
Visibility
9 SM
Flight Rules
VFR
Conditions
Light Snow
Cloud Levels
  • Few at 4,300' AGL
  • Broken at 5,000' AGL
  • Overcast at 5,500' AGL
Temperature
-19°C / -2°F
Dewpoint
-23°C / -9°F
Humidity
71%
Altimeter
30.39" Hg
Pressure
1038.1 hPa
Previous

1 hour ago

CYET 171700Z AUTO 27002KT 9SM -SN CLR M20/M23 A3039 RMK SLP381
Observed
Feb-17 @ 17:00 UTC
Wind
  • 270° at 2 KTS
Visibility
9 SM
Flight Rules
VFR
Conditions
Light Snow
Cloud Levels
  • Clear skies
Temperature
-20°C / -4°F
Dewpoint
-23°C / -9°F
Humidity
77%
Altimeter
30.39" Hg
Pressure
1038.1 hPa
Previous

1 hour ago

CYET 171652Z AUTO 27003KT 9SM -SN CLR M20/M23 A3039 RMK SLP379
Observed
Feb-17 @ 16:52 UTC
Wind
  • 270° at 3 KTS
Visibility
9 SM
Flight Rules
VFR
Conditions
Light Snow
Cloud Levels
  • Clear skies
Temperature
-20°C / -4°F
Dewpoint
-23°C / -9°F
Humidity
77%
Altimeter
30.39" Hg
Pressure
1037.9 hPa